Time;durP1;ratioP1;P1;durP2;ratioP2;P2;SDS_P1;SDS_P2;PMS_P1;PMS_P2;Temp;Humidity;BMP_temperature;BMP_pressure;BME280_temperature;BME280_humidity;BME280_pressure;Samples;Min_cycle;Max_cycle;Signal;HPM_P1;HPM_P2
2022/12/25 00:01:21;;;;;;;46.45;26.48;;;;;;;4.08;100.00;100749.76;1718480;82;25907;-75
2022/12/25 00:03:49;;;;;;;51.90;26.37;;;;;;;4.07;100.00;100756.87;1724038;82;27480;-75
2022/12/25 00:06:16;;;;;;;48.10;28.05;;;;;;;4.11;100.00;100760.06;1718962;81;25796;-75
2022/12/25 00:08:43;;;;;;;48.68;26.93;;;;;;;4.14;100.00;100763.28;1735763;80;25731;-75
2022/12/25 00:11:16;;;;;;;48.00;26.35;;;;;;;4.17;100.00;100766.15;1713214;81;27019;-75
2022/12/25 00:13:43;;;;;;;52.15;27.20;;;;;;;4.20;100.00;100760.06;1736326;80;25890;-75
2022/12/25 00:16:17;;;;;;;52.98;28.05;;;;;;;4.23;100.00;100759.80;1725441;81;27430;-75
2022/12/25 00:18:44;;;;;;;56.18;28.85;;;;;;;4.25;100.00;100763.62;1728380;81;26339;-75
2022/12/25 00:21:12;;;;;;;53.23;28.38;;;;;;;4.25;100.00;100770.25;1713898;81;25653;-75
2022/12/25 00:23:38;;;;;;;55.35;28.42;;;;;;;4.27;100.00;100769.61;1736230;81;26534;-75
2022/12/25 00:26:09;;;;;;;53.17;28.73;;;;;;;4.28;100.00;100765.97;1676197;84;25944;-75
2022/12/25 00:28:36;;;;;;;53.60;28.12;;;;;;;4.32;100.00;100768.70;1728828;82;27456;-75
2022/12/25 00:31:09;;;;;;;53.63;26.68;;;;;;;4.34;100.00;100774.70;1731438;81;25799;-75
2022/12/25 00:33:38;;;;;;;52.05;27.80;;;;;;;4.35;100.00;100779.85;1739028;80;25784;-75
2022/12/25 00:36:06;;;;;;;54.70;29.52;;;;;;;4.36;100.00;100785.48;1734436;81;26541;-75
2022/12/25 00:38:34;;;;;;;56.02;29.02;;;;;;;4.39;100.00;100796.30;1734820;81;25892;-75
2022/12/25 00:41:12;;;;;;;57.13;29.15;;;;;;;4.40;100.00;100801.48;1724047;80;27506;-75
2022/12/25 00:43:40;;;;;;;57.78;30.12;;;;;;;4.45;100.00;100805.02;1740824;80;25560;-75
2022/12/25 00:46:09;;;;;;;56.73;29.77;;;;;;;4.47;100.00;100811.04;1709704;81;25886;-75
2022/12/25 00:48:36;;;;;;;58.85;30.23;;;;;;;4.49;100.00;100821.02;1732075;81;25693;-75
2022/12/25 00:51:07;;;;;;;56.18;30.23;;;;;;;4.50;100.00;100823.52;1738004;81;26844;-75
2022/12/25 00:53:33;;;;;;;55.33;30.12;;;;;;;4.52;100.00;100830.84;1736162;81;32556;-75
2022/12/25 00:56:04;;;;;;;50.88;27.58;;;;;;;4.54;100.00;100839.49;1734369;81;25727;-75
2022/12/25 00:58:32;;;;;;;50.78;26.42;;;;;;;4.56;100.00;100831.38;1679872;84;25820;-75
2022/12/25 01:00:59;;;;;;;54.15;28.40;;;;;;;4.58;100.00;100831.59;1737209;81;25800;-75
2022/12/25 01:03:25;;;;;;;52.53;26.95;;;;;;;4.57;100.00;100839.22;1732783;81;26059;-75
2022/12/25 01:05:59;;;;;;;52.43;27.98;;;;;;;4.54;100.00;100839.97;1732366;80;27466;-75
2022/12/25 01:08:26;;;;;;;47.38;25.65;;;;;;;4.55;100.00;100841.18;1736126;81;25816;-75
2022/12/25 01:10:56;;;;;;;48.00;26.10;;;;;;;4.53;100.00;100837.80;1734731;81;26413;-75
2022/12/25 01:13:23;;;;;;;47.43;26.52;;;;;;;4.50;100.00;100834.13;1731278;81;25944;-75
2022/12/25 01:15:51;;;;;;;51.30;27.15;;;;;;;4.52;100.00;100822.89;1744027;81;25851;-75
2022/12/25 01:18:19;;;;;;;52.20;26.87;;;;;;;4.52;100.00;100822.04;1732455;81;27463;-75
2022/12/25 01:20:46;;;;;;;49.53;25.75;;;;;;;4.53;100.00;100823.22;1735098;81;25825;-75
2022/12/25 01:23:12;;;;;;;43.25;24.37;;;;;;;4.53;100.00;100831.17;1733402;81;25814;-75
2022/12/25 01:25:39;;;;;;;48.25;26.68;;;;;;;4.55;100.00;100836.36;1738054;80;26212;-75
2022/12/25 01:28:06;;;;;;;48.50;26.12;;;;;;;4.56;100.00;100834.03;1727712;81;26484;-75
2022/12/25 01:30:32;;;;;;;47.38;26.30;;;;;;;4.56;100.00;100840.19;1739267;81;27430;-75
2022/12/25 01:32:59;;;;;;;51.00;28.77;;;;;;;4.57;100.00;100835.73;1733358;81;25763;-75
2022/12/25 01:35:25;;;;;;;48.23;27.82;;;;;;;4.58;100.00;100842.69;1720760;81;26522;-75
2022/12/25 01:37:52;;;;;;;56.75;29.65;;;;;;;4.60;100.00;100835.42;1713651;82;26537;-75
2022/12/25 01:40:18;;;;;;;58.87;28.40;;;;;;;4.62;100.00;100850.22;1687786;83;25889;-75
2022/12/25 01:42:44;;;;;;;55.63;28.55;;;;;;;4.64;100.00;100856.73;1703367;82;27531;-75
2022/12/25 01:45:40;;;;;;;50.40;27.27;;;;;;;4.65;100.00;100845.12;1697132;82;25771;-75
2022/12/25 01:48:17;;;;;;;49.08;29.18;;;;;;;4.66;100.00;100836.20;1734658;81;26502;-75
2022/12/25 01:50:48;;;;;;;52.62;27.98;;;;;;;4.68;100.00;100839.55;1737322;80;25793;-75
2022/12/25 01:53:14;;;;;;;49.40;27.48;;;;;;;4.68;100.00;100835.05;1717149;81;25798;-75
2022/12/25 01:55:44;;;;;;;49.53;25.97;;;;;;;4.68;100.00;100828.94;1743186;81;27523;-75
2022/12/25 01:58:11;;;;;;;48.45;25.82;;;;;;;4.67;100.00;100823.27;1718784;81;25830;-75
2022/12/25 02:00:37;;;;;;;50.17;26.95;;;;;;;4.68;100.00;100825.77;1742043;81;26110;-75
2022/12/25 02:03:04;;;;;;;52.93;27.45;;;;;;;4.68;100.00;100826.28;1735988;81;26235;-75
2022/12/25 02:05:33;;;;;;;54.42;27.95;;;;;;;4.68;100.00;100827.09;1707673;81;26378;-75
2022/12/25 02:08:10;;;;;;;53.92;28.80;;;;;;;4.69;100.00;100837.23;1735776;80;27460;-75
2022/12/25 02:10:42;;;;;;;56.48;28.50;;;;;;;4.70;100.00;100844.22;1737540;80;25882;-74
2022/12/25 02:13:08;;;;;;;57.93;30.17;;;;;;;4.68;100.00;100851.48;1733595;81;25826;-75
2022/12/25 02:15:49;;;;;;;57.23;30.32;;;;;;;4.68;100.00;100845.67;1742254;81;25746;-75
2022/12/25 02:18:24;;;;;;;56.65;29.75;;;;;;;4.70;100.00;100845.03;1694126;82;25838;-74
2022/12/25 02:21:20;;;;;;;61.28;30.02;;;;;;;4.72;100.00;100837.44;1707202;82;27460;-75
2022/12/25 02:24:01;;;;;;;54.75;30.45;;;;;;;4.72;100.00;100836.11;1676169;82;25837;-74
2022/12/25 02:26:54;;;;;;;54.30;27.73;;;;;;;4.73;100.00;100840.45;1712378;81;25799;-75
2022/12/25 02:30:02;;;;;;;53.92;29.63;;;;;;;4.74;100.00;100834.14;1727970;81;26525;-74
2022/12/25 02:34:01;;;;;;;56.50;28.12;;;;;;;4.74;100.00;100836.80;1739600;81;25804;-74
2022/12/25 02:35:29;;;;;;;60.10;28.65;;;;;;;4.73;100.00;100838.61;1732947;81;27425;-75
2022/12/25 02:38:04;;;;;;;51.70;26.25;;;;;;;4.71;100.00;100847.20;1748881;80;25911;-75
2022/12/25 02:40:38;;;;;;;55.78;28.38;;;;;;;4.69;100.00;100842.53;1719177;82;25718;-74
2022/12/25 03:08:51;;;;;;;57.83;29.00;;;;;;;4.68;100.00;100840.36;1736568;81;25906;-75
2022/12/25 03:11:29;;;;;;;63.25;30.05;;;;;;;4.65;100.00;100841.15;1741113;81;25801;-75
2022/12/25 03:16:53;;;;;;;58.65;29.72;;;;;;;4.66;100.00;100843.65;1741045;80;27919;-74
2022/12/25 03:27:46;;;;;;;69.17;32.65;;;;;;;4.74;100.00;100851.39;1745296;80;25753;-74
2022/12/25 03:33:15;;;;;;;69.92;33.85;;;;;;;4.81;100.00;100845.87;1729000;80;25858;-75
2022/12/25 03:36:02;;;;;;;66.77;33.73;;;;;;;4.81;100.00;100848.04;1736687;81;25851;-76
2022/12/25 04:37:22;;;;;;;71.12;30.20;;;;;;;5.01;100.00;100877.99;1712256;82;26642;-75
2022/12/25 04:39:48;;;;;;;77.22;31.07;;;;;;;4.99;100.00;100886.11;1691979;82;27469;-75
2022/12/25 04:42:16;;;;;;;78.50;31.90;;;;;;;4.97;100.00;100893.38;1702182;83;25857;-75
2022/12/25 04:44:42;;;;;;;66.62;31.00;;;;;;;4.93;100.00;100887.17;1705526;83;25865;-75
2022/12/25 04:47:08;;;;;;;71.17;32.48;;;;;;;4.88;100.00;100894.23;1701999;83;25778;-75
2022/12/25 04:49:34;;;;;;;79.40;31.60;;;;;;;4.89;100.00;100885.79;1705583;83;26596;-75
2022/12/25 04:52:01;;;;;;;74.67;31.35;;;;;;;4.90;100.00;100886.16;1704354;83;28286;-75
2022/12/25 04:54:27;;;;;;;66.82;32.10;;;;;;;4.91;100.00;100886.48;1705487;83;25817;-75
2022/12/25 04:56:53;;;;;;;82.35;33.02;;;;;;;4.93;100.00;100890.67;1704221;82;25833;-75
2022/12/25 04:59:19;;;;;;;68.15;30.43;;;;;;;4.95;100.00;100891.84;1705664;83;26654;-75
2022/12/25 05:01:46;;;;;;;69.37;31.02;;;;;;;4.94;100.00;100888.86;1702638;82;25863;-75
2022/12/25 05:04:12;;;;;;;72.85;29.23;;;;;;;4.95;100.00;100892.69;1703336;83;27479;-74
2022/12/25 05:06:39;;;;;;;75.20;31.25;;;;;;;4.97;100.00;100901.83;1703141;83;25965;-75
2022/12/25 05:09:05;;;;;;;76.25;29.80;;;;;;;4.96;100.00;100901.50;1692107;83;25938;-75
2022/12/25 05:11:31;;;;;;;76.75;32.03;;;;;;;4.92;100.00;100892.16;1692002;83;25779;-75
2022/12/25 05:13:58;;;;;;;75.65;29.45;;;;;;;4.91;100.00;100893.96;1692371;83;25772;-75
2022/12/25 05:16:25;;;;;;;69.15;30.55;;;;;;;4.92;100.00;100902.25;1686505;83;27460;-75
2022/12/25 05:18:52;;;;;;;79.10;31.48;;;;;;;4.94;100.00;100903.46;1692190;83;25976;-75
2022/12/25 05:21:18;;;;;;;75.47;31.45;;;;;;;4.94;100.00;100904.79;1670839;84;25855;-75
2022/12/25 05:23:51;;;;;;;75.37;30.30;;;;;;;4.93;100.00;100906.59;1730426;81;26902;-75
2022/12/25 05:26:21;;;;;;;73.47;30.85;;;;;;;4.93;100.00;100903.94;1731904;81;25853;-75
2022/12/25 05:28:48;;;;;;;70.25;29.80;;;;;;;4.97;100.00;100915.10;1722162;81;27416;-75
2022/12/25 05:31:14;;;;;;;80.07;33.20;;;;;;;4.98;100.00;100916.80;1726561;81;25900;-75
2022/12/25 05:33:41;;;;;;;73.15;34.33;;;;;;;5.00;100.00;100914.83;1660975;84;25896;-75
2022/12/25 05:36:10;;;;;;;71.97;32.28;;;;;;;5.02;100.00;100915.04;1725272;82;26476;-75
2022/12/25 05:38:37;;;;;;;73.97;30.32;;;;;;;5.04;100.00;100924.17;1734805;81;26481;-75
2022/12/25 05:41:03;;;;;;;74.53;30.97;;;;;;;5.06;100.00;100926.20;1737814;82;27525;-75
2022/12/25 05:43:30;;;;;;;78.42;33.80;;;;;;;5.06;100.00;100922.22;1727516;81;25762;-75
2022/12/25 05:45:57;;;;;;;81.30;32.00;;;;;;;5.04;100.00;100932.14;1736301;82;25689;-75
2022/12/25 05:48:24;;;;;;;82.42;32.25;;;;;;;5.03;100.00;100936.61;1711236;82;25806;-75
2022/12/25 05:50:50;;;;;;;80.53;33.23;;;;;;;5.03;100.00;100942.40;1731309;82;25296;-75
2022/12/25 05:53:16;;;;;;;84.28;30.97;;;;;;;5.03;100.00;100949.88;1730919;81;27437;-74
2022/12/25 05:55:43;;;;;;;73.02;30.30;;;;;;;5.04;100.00;100937.45;1731093;81;25440;-75
2022/12/25 05:58:11;;;;;;;75.97;31.27;;;;;;;5.04;100.00;100941.44;1729595;82;26327;-75
2022/12/25 06:00:39;;;;;;;74.50;30.15;;;;;;;5.04;100.00;100939.63;1731348;82;25795;-75
2022/12/25 06:03:05;;;;;;;75.52;30.75;;;;;;;5.05;100.00;100949.73;1735713;81;25803;-75
2022/12/25 06:05:32;;;;;;;81.80;32.50;;;;;;;5.05;100.00;100951.05;1735134;81;27460;-75
2022/12/25 06:07:58;;;;;;;79.42;31.42;;;;;;;5.07;100.00;100965.05;1735921;81;26511;-75
2022/12/25 06:10:24;;;;;;;78.00;31.12;;;;;;;5.08;100.00;100966.72;1739616;81;25706;-75
2022/12/25 06:12:50;;;;;;;79.62;32.70;;;;;;;5.10;100.00;100974.05;1735269;82;25774;-75
2022/12/25 06:15:17;;;;;;;74.65;30.85;;;;;;;5.09;100.00;100969.22;1735901;82;25934;-75
2022/12/25 06:17:43;;;;;;;80.80;32.88;;;;;;;5.10;100.00;100966.92;1734871;82;27461;-74
2022/12/25 06:20:10;;;;;;;76.37;31.00;;;;;;;5.10;100.00;100970.91;1697654;81;26254;-75
2022/12/25 06:22:36;;;;;;;84.03;30.88;;;;;;;5.11;100.00;100981.05;1694048;82;26363;-75
2022/12/25 06:25:03;;;;;;;74.55;29.60;;;;;;;5.09;100.00;100981.16;1693793;83;26601;-75
2022/12/25 06:27:29;;;;;;;77.92;32.15;;;;;;;5.11;100.00;100990.34;1693295;83;25730;-75
2022/12/25 06:29:55;;;;;;;71.67;30.43;;;;;;;5.11;100.00;100997.79;1693108;83;27481;-75
2022/12/25 06:32:21;;;;;;;66.77;27.05;;;;;;;5.14;100.00;100999.33;1693906;83;25801;-75
2022/12/25 06:34:48;;;;;;;81.45;31.87;;;;;;;5.15;100.00;101002.34;1691408;83;25869;-75
2022/12/25 06:37:14;;;;;;;66.60;28.10;;;;;;;5.15;100.00;101009.83;1696085;83;25823;-75
2022/12/25 06:39:40;;;;;;;71.35;29.63;;;;;;;5.15;100.00;101014.30;1693913;83;26699;-75
2022/12/25 06:42:07;;;;;;;66.80;27.90;;;;;;;5.16;100.00;101024.77;1691062;83;27462;-75
2022/12/25 06:44:33;;;;;;;66.40;29.30;;;;;;;5.17;100.00;101025.12;1695340;83;26562;-75
2022/12/25 06:46:59;;;;;;;72.67;29.82;;;;;;;5.18;100.00;101027.27;1693815;83;26371;-75
2022/12/25 06:49:26;;;;;;;63.65;29.60;;;;;;;5.18;100.00;101036.08;1691735;83;26323;-75
2022/12/25 06:51:52;;;;;;;61.85;27.25;;;;;;;5.18;100.00;101034.75;1695444;83;25848;-75
2022/12/25 06:54:18;;;;;;;61.92;27.13;;;;;;;5.19;100.00;101035.60;1701597;83;28244;-75
2022/12/25 06:56:45;;;;;;;55.38;27.07;;;;;;;5.20;100.00;101042.57;1699851;82;25758;-75
2022/12/25 06:59:11;;;;;;;60.20;25.95;;;;;;;5.19;100.00;101044.41;1696508;83;25945;-75
2022/12/25 07:01:53;;;;;;;62.93;27.90;;;;;;;5.21;100.00;101053.55;1690939;83;26408;-75
2022/12/25 07:04:40;;;;;;;61.00;28.05;;;;;;;5.22;100.00;101051.23;1691015;83;25742;-75
2022/12/25 07:07:08;;;;;;;62.23;27.95;;;;;;;5.22;100.00;101053.41;1694820;83;27476;-75
2022/12/25 07:09:35;;;;;;;63.20;27.37;;;;;;;5.24;100.00;101062.06;1691211;82;25866;-75
2022/12/25 07:12:22;;;;;;;63.15;26.73;;;;;;;5.28;100.00;101057.33;1688824;83;26637;-75
2022/12/25 07:14:49;;;;;;;63.45;25.12;;;;;;;5.29;100.00;101062.50;1694589;83;25787;-75
2022/12/25 07:17:16;;;;;;;63.13;26.90;;;;;;;5.32;100.00;101065.36;1699300;83;25711;-75
2022/12/25 07:19:43;;;;;;;61.28;26.37;;;;;;;5.33;100.00;101063.89;1692159;83;27487;-75
2022/12/25 07:22:09;;;;;;;57.00;26.48;;;;;;;5.36;100.00;101071.58;1695923;83;25735;-75
2022/12/25 07:24:35;;;;;;;61.18;27.67;;;;;;;5.38;100.00;101074.09;1703117;82;25703;-75
2022/12/25 07:27:01;;;;;;;58.40;28.38;;;;;;;5.38;100.00;101079.40;1701098;83;26568;-75
2022/12/25 07:29:28;;;;;;;58.80;26.87;;;;;;;5.38;100.00;101082.91;1695921;83;25838;-75
2022/12/25 07:31:54;;;;;;;63.68;27.62;;;;;;;5.38;100.00;101086.89;1701402;83;27493;-76
2022/12/25 07:34:22;;;;;;;62.03;29.40;;;;;;;5.39;100.00;101088.55;1703132;83;25912;-75
2022/12/25 07:36:48;;;;;;;64.22;30.05;;;;;;;5.40;100.00;101090.72;1701315;83;25887;-75
2022/12/25 07:39:15;;;;;;;66.77;28.45;;;;;;;5.41;100.00;101093.23;1701345;83;25831;-75
2022/12/25 07:41:43;;;;;;;70.40;30.43;;;;;;;5.40;100.00;101095.55;1689316;83;25747;-75
2022/12/25 07:44:15;;;;;;;53.35;26.07;;;;;;;5.42;100.00;101100.72;1702945;83;27537;-75
2022/12/25 07:46:42;;;;;;;58.60;26.48;;;;;;;5.43;100.00;101109.86;1702606;82;25838;-75
2022/12/25 07:49:10;;;;;;;68.72;30.10;;;;;;;5.44;100.00;101106.24;1701973;83;25784;-75
2022/12/25 07:51:36;;;;;;;54.98;26.25;;;;;;;5.48;100.00;101106.78;1704875;82;25774;-75
2022/12/25 07:54:03;;;;;;;56.37;27.17;;;;;;;5.48;100.00;101118.74;1702025;83;26474;-75
2022/12/25 07:56:29;;;;;;;60.23;27.55;;;;;;;5.49;100.00;101123.09;1704179;83;27431;-75
2022/12/25 07:58:56;;;;;;;55.45;26.17;;;;;;;5.52;100.00;101124.12;1692231;82;34472;-82
2022/12/25 08:01:25;;;;;;;59.55;27.65;;;;;;;5.55;100.00;101137.61;1721076;81;25887;-82
2022/12/25 08:04:00;;;;;;;62.85;27.55;;;;;;;5.57;100.00;101148.45;1725457;82;25852;-81
2022/12/25 08:06:30;;;;;;;65.78;28.32;;;;;;;5.59;100.00;101147.83;1724241;82;25742;-81
2022/12/25 08:09:04;;;;;;;57.93;27.62;;;;;;;5.62;100.00;101141.39;1720097;82;27488;-81
2022/12/25 08:11:30;;;;;;;66.37;29.23;;;;;;;5.65;100.00;101144.59;1723760;82;25287;-82
2022/12/25 08:13:56;;;;;;;61.40;29.00;;;;;;;5.68;100.00;101152.30;1718922;82;25778;-81
2022/12/25 08:16:23;;;;;;;64.35;28.23;;;;;;;5.69;100.00;101147.83;1725196;81;25808;-82
2022/12/25 08:18:49;;;;;;;55.60;25.32;;;;;;;5.71;100.00;101149.34;1706201;82;25686;-81
2022/12/25 08:21:15;;;;;;;57.00;27.50;;;;;;;5.71;100.00;101148.52;1723162;81;28323;-81
2022/12/25 08:23:45;;;;;;;56.65;26.90;;;;;;;5.71;100.00;101151.99;1693028;83;25860;-82
2022/12/25 08:26:16;;;;;;;62.88;27.00;;;;;;;5.74;100.00;101156.20;1722644;82;25737;-84
2022/12/25 08:28:43;;;;;;;60.00;26.75;;;;;;;5.75;100.00;101154.71;1722570;82;25862;-84
2022/12/25 08:31:20;;;;;;;60.15;25.85;;;;;;;5.77;100.00;101163.41;1727044;82;25945;-84
2022/12/25 08:33:49;;;;;;;63.08;28.62;;;;;;;5.76;100.00;101167.52;1712102;82;27627;-84
2022/12/25 08:36:17;;;;;;;62.85;26.57;;;;;;;5.76;100.00;101165.71;1723286;82;26285;-83
2022/12/25 08:38:55;;;;;;;61.77;27.05;;;;;;;5.72;100.00;101168.30;1689121;83;25834;-87
2022/12/25 08:41:31;;;;;;;;;;;;;;;;;;;;;
2022/12/25 08:43:53;;;;;;;61.02;25.82;;;;;;;5.71;100.00;101174.59;1616528;86;26449;-83
2022/12/25 08:46:19;;;;;;;59.05;25.25;;;;;;;5.70;100.00;101176.06;1676833;81;27638;-81
2022/12/25 08:48:48;;;;;;;62.13;26.95;;;;;;;5.70;100.00;101181.38;1722778;82;25905;-76
2022/12/25 08:51:19;;;;;;;63.45;26.50;;;;;;;5.71;100.00;101182.56;1695537;83;25940;-77
2022/12/25 08:53:48;;;;;;;;;;;;;;;5.72;100.00;101182.08;1723777;81;26577;-76
2022/12/25 08:56:15;;;;;;;56.55;25.37;;;;;;;5.72;100.00;101186.06;1725475;82;25741;-77
2022/12/25 08:58:42;;;;;;;64.15;27.87;;;;;;;5.73;100.00;101183.77;1727147;82;27519;-77
2022/12/25 09:01:08;;;;;;;58.50;26.73;;;;;;;5.77;100.00;101190.00;1722315;82;25729;-80
2022/12/25 09:03:35;;;;;;;69.95;30.25;;;;;;;5.80;100.00;101192.35;1727441;82;26399;-77
2022/12/25 09:06:06;;;;;;;55.90;25.97;;;;;;;5.80;100.00;101187.52;1724585;82;25776;-77
2022/12/25 09:08:34;;;;;;;53.55;25.82;;;;;;;5.82;100.00;101204.16;1724949;82;25934;-77
2022/12/25 09:11:12;;;;;;;61.28;25.77;;;;;;;5.82;100.00;101193.53;1721980;82;28723;-77
2022/12/25 09:13:40;;;;;;;65.60;27.22;;;;;;;5.86;100.00;101197.64;1697098;83;25879;-77
2022/12/25 09:16:10;;;;;;;62.40;28.45;;;;;;;5.86;100.00;101198.97;1708986;83;25900;-82
2022/12/25 09:18:37;;;;;;;54.85;25.25;;;;;;;5.84;100.00;101199.58;1722224;82;25777;-81
2022/12/25 09:21:07;;;;;;;65.78;25.97;;;;;;;5.83;100.00;101201.87;1723428;82;25896;-81
2022/12/25 09:23:34;;;;;;;55.63;25.77;;;;;;;5.82;100.00;101205.49;1707176;82;27452;-81
2022/12/25 09:26:03;;;;;;;64.92;27.82;;;;;;;5.80;100.00;101204.31;1716557;82;25856;-80
2022/12/25 09:28:29;;;;;;;61.30;27.40;;;;;;;5.76;100.00;101200.75;1729247;82;25609;-81
2022/12/25 09:30:56;;;;;;;60.55;25.75;;;;;;;5.74;100.00;101206.70;1715408;82;25913;-82
2022/12/25 09:33:23;;;;;;;71.57;28.90;;;;;;;5.73;100.00;101201.86;1726056;81;25746;-87
2022/12/25 09:36:01;;;;;;;70.55;29.02;;;;;;;5.77;100.00;101205.95;1735130;81;27469;-83
2022/12/25 09:38:29;;;;;;;65.80;27.17;;;;;;;5.76;100.00;101198.09;1719495;82;25850;-84
2022/12/25 09:41:04;;;;;;;70.45;29.90;;;;;;;5.77;100.00;101205.09;1723092;83;25858;-82
2022/12/25 09:43:35;;;;;;;62.45;27.02;;;;;;;5.77;100.00;101207.27;1729348;82;25958;-80
2022/12/25 09:46:05;;;;;;;70.40;28.77;;;;;;;5.79;100.00;101205.31;1726835;82;25396;-83
2022/12/25 09:48:34;;;;;;;66.10;28.52;;;;;;;5.80;100.00;101204.80;1703604;83;27466;-84
2022/12/25 09:51:09;;;;;;;70.50;27.62;;;;;;;5.80;100.00;101203.47;1734972;82;26279;-84
2022/12/25 09:53:46;;;;;;;59.15;27.32;;;;;;;5.77;100.00;101207.27;1725555;81;25792;-84
2022/12/25 09:56:20;;;;;;;59.98;25.50;;;;;;;5.76;100.00;101209.56;1712054;81;25783;-86
2022/12/25 09:58:47;;;;;;;60.08;26.33;;;;;;;5.75;100.00;101203.89;1708212;82;25875;-84
2022/12/25 10:01:33;;;;;;;61.58;27.10;;;;;;;5.74;100.00;101192.08;1720855;82;28251;-84
2022/12/25 10:04:11;;;;;;;65.45;29.27;;;;;;;5.69;100.00;101187.18;1719959;82;25782;-83
2022/12/25 10:07:08;;;;;;;64.40;27.55;;;;;;;5.67;100.00;101195.78;1718760;83;25806;-84
2022/12/25 10:09:40;;;;;;;60.10;27.42;;;;;;;5.71;100.00;101192.38;1716634;82;25778;-84
2022/12/25 10:12:54;;;;;;;;;;;;;;;;;;;;;
2022/12/25 10:15:59;;;;;;;65.87;28.57;;;;;;;5.73;100.00;101185.10;1673313;84;26155;-88
2022/12/25 10:21:57;;;;;;;;;;;;;;;;;;;;;
2022/12/25 10:24:41;;;;;;;52.93;24.82;;;;;;;5.72;100.00;101200.20;1657154;84;25839;-91
2022/12/25 10:27:18;;;;;;;58.10;26.00;;;;;;;5.71;100.00;101190.53;1723183;82;25866;-84
2022/12/25 10:29:50;;;;;;;55.33;25.68;;;;;;;5.65;100.00;101183.13;1711409;82;27450;-87
2022/12/25 10:32:16;;;;;;;49.13;23.38;;;;;;;5.66;100.00;101190.63;1727665;82;25726;-88
2022/12/25 10:34:42;;;;;;;54.23;24.95;;;;;;;5.65;100.00;101204.39;1724909;82;25295;-84
2022/12/25 10:37:11;;;;;;;52.20;23.67;;;;;;;5.63;100.00;101203.70;1725451;82;25767;-86
2022/12/25 10:39:37;;;;;;;61.05;25.70;;;;;;;5.66;100.00;101214.54;1708614;82;26448;-87
2022/12/25 10:42:31;;;;;;;59.85;27.45;;;;;;;5.67;100.00;101206.90;1707304;82;27621;-85
2022/12/25 10:45:10;;;;;;;49.67;24.27;;;;;;;5.69;100.00;101205.78;1722114;82;25885;-90
2022/12/25 10:47:41;;;;;;;56.02;24.43;;;;;;;5.72;100.00;101209.50;1725201;82;25295;-86
2022/12/25 10:50:13;;;;;;;54.77;26.23;;;;;;;5.78;100.00;101211.59;1711741;82;25869;-86
2022/12/25 10:52:59;;;;;;;49.98;24.20;;;;;;;5.83;100.00;101209.36;1721058;81;25828;-86
2022/12/25 10:55:25;;;;;;;51.90;26.77;;;;;;;5.87;100.00;101204.62;1708032;81;27452;-86
2022/12/25 10:57:54;;;;;;;53.52;24.92;;;;;;;5.90;100.00;101207.83;1726778;82;26300;-86
2022/12/25 11:00:28;;;;;;;53.28;24.18;;;;;;;5.94;100.00;101213.23;1719386;82;26194;-86
2022/12/25 11:02:54;;;;;;;55.40;24.55;;;;;;;5.96;100.00;101210.42;1719762;82;25759;-85
2022/12/25 11:05:35;;;;;;;48.58;24.77;;;;;;;5.97;100.00;101205.44;1701692;82;25840;-87
2022/12/25 11:08:02;;;;;;;47.75;23.38;;;;;;;5.98;100.00;101206.65;1707522;82;27440;-83
2022/12/25 11:10:36;;;;;;;47.95;24.07;;;;;;;5.98;100.00;101206.65;1710599;82;26627;-88
2022/12/25 11:13:06;;;;;;;52.15;23.73;;;;;;;5.97;100.00;101211.61;1679479;83;25948;-84
2022/12/25 11:15:47;;;;;;;51.37;25.00;;;;;;;5.98;100.00;101213.78;1724840;82;27051;-83
2022/12/25 11:18:27;;;;;;;47.40;23.18;;;;;;;5.96;100.00;101216.59;1717075;82;26165;-77
2022/12/25 11:21:15;;;;;;;43.33;22.63;;;;;;;5.99;100.00;101214.11;1720622;82;28349;-77
2022/12/25 11:23:50;;;;;;;46.00;23.80;;;;;;;6.02;100.00;101212.52;1667966;84;25337;-88
2022/12/25 11:26:17;;;;;;;49.35;23.45;;;;;;;6.03;100.00;101212.87;1671434;83;25889;-86
2022/12/25 11:28:45;;;;;;;48.85;25.32;;;;;;;6.03;100.00;101203.05;1699103;84;25867;-78
2022/12/25 11:31:25;;;;;;;45.30;23.45;;;;;;;6.06;100.00;101203.26;1661660;84;25802;-93
2022/12/25 11:34:17;;;;;;;44.58;21.93;;;;;;;6.06;100.00;101204.11;1638246;84;27667;-83
2022/12/25 11:36:50;;;;;;;49.20;23.95;;;;;;;6.07;100.00;101207.09;1703515;82;25841;-87
2022/12/25 11:39:25;;;;;;;49.27;23.38;;;;;;;6.07;100.00;101202.30;1721124;81;25581;-76
2022/12/25 11:42:06;;;;;;;49.58;23.12;;;;;;;6.07;100.00;101201.78;1716708;82;26561;-77
2022/12/25 11:45:02;;;;;;;146.00;79.87;;;;;;;6.12;100.00;101201.35;1686654;83;26003;-77
2022/12/25 11:47:56;;;;;;;70.67;35.73;;;;;;;6.15;100.00;101202.41;1705173;82;27478;-79
2022/12/25 11:50:29;;;;;;;130.10;82.70;;;;;;;6.18;100.00;101199.44;1720005;83;25980;-79
2022/12/25 11:53:01;;;;;;;62.35;31.80;;;;;;;6.21;100.00;101200.50;1668357;84;25862;-79
2022/12/25 11:55:41;;;;;;;62.55;29.12;;;;;;;6.23;100.00;101198.05;1720614;83;25840;-79
2022/12/25 11:58:32;;;;;;;66.50;30.08;;;;;;;6.27;100.00;101203.91;1720123;82;26551;-77
2022/12/25 12:01:04;;;;;;;97.75;56.80;;;;;;;6.30;100.00;101195.65;1714635;81;27966;-78
2022/12/25 12:03:37;;;;;;;101.75;56.60;;;;;;;6.33;100.00;101195.86;1719950;82;25730;-79
2022/12/25 12:06:20;;;;;;;62.35;30.85;;;;;;;6.36;100.00;101193.73;1717272;81;26148;-79
2022/12/25 12:08:51;;;;;;;65.55;29.92;;;;;;;6.37;100.00;101193.25;1666509;83;26169;-78
2022/12/25 12:11:38;;;;;;;75.95;36.80;;;;;;;6.40;100.00;101196.93;1725310;81;25742;-78
2022/12/25 12:14:43;;;;;;;74.42;31.87;;;;;;;6.43;100.00;101204.16;1718799;82;27452;-79
2022/12/25 12:17:13;;;;;;;74.37;33.30;;;;;;;6.45;100.00;101204.84;1725751;82;25797;-86
2022/12/25 12:19:40;;;;;;;74.20;34.70;;;;;;;6.47;100.00;101204.69;1719757;81;25690;-83
2022/12/25 12:22:18;;;;;;;96.00;50.28;;;;;;;6.50;100.00;101203.89;1731854;82;25967;-82
2022/12/25 12:24:55;;;;;;;81.25;41.25;;;;;;;6.53;100.00;101202.28;1718978;81;25917;-84
2022/12/25 12:27:33;;;;;;;81.80;44.45;;;;;;;6.55;100.00;101199.47;1707452;82;27524;-76
2022/12/25 12:30:00;;;;;;;75.97;40.48;;;;;;;6.57;100.00;101197.02;1732190;82;25807;-82
2022/12/25 12:32:38;;;;;;;73.50;38.15;;;;;;;6.59;100.00;101199.03;1727881;81;26056;-78
2022/12/25 12:35:18;;;;;;;84.62;46.33;;;;;;;6.61;100.00;101203.72;1704551;82;26035;-83
2022/12/25 12:37:52;;;;;;;72.58;38.85;;;;;;;6.63;100.00;101203.08;1727409;82;25913;-83
2022/12/25 12:40:36;;;;;;;95.10;49.13;;;;;;;6.65;100.00;101195.78;1724726;81;27711;-84
2022/12/25 12:43:06;;;;;;;96.57;44.33;;;;;;;6.67;100.00;101188.48;1722442;82;25930;-79
2022/12/25 12:45:36;;;;;;;67.42;31.48;;;;;;;6.71;100.00;101189.05;1724247;82;25975;-78
2022/12/25 12:48:15;;;;;;;56.48;29.35;;;;;;;6.71;100.00;101191.23;1721051;81;25970;-85
2022/12/25 12:50:42;;;;;;;60.23;30.20;;;;;;;6.69;100.00;101190.50;1721343;82;25286;-77
2022/12/25 12:53:26;;;;;;;73.25;33.25;;;;;;;6.71;100.00;101182.39;1731530;82;27460;-83
2022/12/25 12:55:52;;;;;;;65.20;31.90;;;;;;;6.71;100.00;101188.56;1712106;82;25388;-85
2022/12/25 12:58:37;;;;;;;61.48;29.60;;;;;;;6.70;100.00;101188.69;1718703;82;25804;-77
2022/12/25 13:01:30;;;;;;;61.92;30.35;;;;;;;6.71;100.00;101177.91;1722398;82;25792;-77
2022/12/25 13:04:24;;;;;;;72.20;34.30;;;;;;;6.71;100.00;101181.06;1716884;82;25769;-77
2022/12/25 13:07:26;;;;;;;70.70;36.93;;;;;;;6.75;100.00;101185.95;1721852;81;28320;-85
2022/12/25 13:10:04;;;;;;;97.47;64.72;;;;;;;6.79;100.00;101190.47;1720915;81;25951;-78
2022/12/25 13:12:30;;;;;;;80.60;40.08;;;;;;;6.80;100.00;101194.83;1719330;81;26088;-86
2022/12/25 13:14:57;;;;;;;78.45;36.85;;;;;;;6.82;100.00;101200.84;1720164;82;26518;-88
2022/12/25 13:17:25;;;;;;;68.35;31.27;;;;;;;6.84;100.00;101207.66;1717601;82;25880;-81